Time;durP1;ratioP1;P1;durP2;ratioP2;P2;SDS_P1;SDS_P2;PMS_P1;PMS_P2;Temp;Humidity;BMP_temperature;BMP_pressure;BME280_temperature;BME280_humidity;BME280_pressure;Samples;Min_cycle;Max_cycle;Signal;HPM_P1;HPM_P2
2022/04/23 00:01:00;;;;;;;;;;;10.30;99.90;;;;;;5019968;28;20282;-66
2022/04/23 00:03:25;;;;;;;;;;;10.30;99.90;;;;;;5021104;28;20029;-66
2022/04/23 00:05:51;;;;;;;;;;;10.20;99.90;;;;;;5022297;28;19996;-66
2022/04/23 00:08:16;;;;;;;;;;;10.20;99.90;;;;;;5021804;28;20394;-66
2022/04/23 00:10:42;;;;;;;;;;;10.20;99.90;;;;;;5022040;28;19921;-66
2022/04/23 00:13:08;;;;;;;;;;;10.20;99.90;;;;;;5021733;28;19916;-66
2022/04/23 00:15:39;;;;;;;;;;;10.20;99.90;;;;;;5021258;28;19917;-66
2022/04/23 00:18:05;;;;;;;;;;;10.10;99.90;;;;;;5020089;28;19921;-66
2022/04/23 00:20:30;;;;;;;;;;;10.00;99.90;;;;;;5020956;28;19924;-66
2022/04/23 00:22:56;;;;;;;;;;;10.00;99.90;;;;;;5021441;28;19909;-66
2022/04/23 00:25:21;;;;;;;;;;;9.90;99.90;;;;;;5021621;28;19928;-66
2022/04/23 00:27:47;;;;;;;;;;;9.90;99.90;;;;;;5022008;28;19987;-66
2022/04/23 00:30:12;;;;;;;;;;;9.90;99.90;;;;;;5021470;28;19917;-66
2022/04/23 00:32:38;;;;;;;;;;;9.80;99.90;;;;;;5020813;28;20023;-66
2022/04/23 00:35:05;;;;;;;;;;;9.70;99.90;;;;;;5018917;28;19924;-67
2022/04/23 00:37:30;;;;;;;;;;;9.70;99.90;;;;;;5020534;28;19955;-66
2022/04/23 00:39:55;;;;;;;;;;;9.70;99.90;;;;;;5020961;28;20433;-66
2022/04/23 00:42:21;;;;;;;;;;;9.70;99.90;;;;;;5021858;28;20359;-66
2022/04/23 00:44:46;;;;;;;;;;;9.70;99.90;;;;;;5021440;28;19925;-66
2022/04/23 00:47:12;;;;;;;;;;;9.70;99.90;;;;;;5020225;28;20263;-66
2022/04/23 00:49:37;;;;;;;;;;;9.60;99.90;;;;;;5020986;28;20298;-66
2022/04/23 00:52:03;;;;;;;;;;;9.60;99.90;;;;;;5019786;28;19917;-66
2022/04/23 00:54:28;;;;;;;;;;;9.50;99.90;;;;;;5021291;28;20009;-66
2022/04/23 00:56:54;;;;;;;;;;;9.50;99.90;;;;;;5021394;28;19920;-66
2022/04/23 00:59:19;;;;;;;;;;;9.40;99.90;;;;;;5021155;28;19921;-66
2022/04/23 01:01:45;;;;;;;;;;;9.40;99.90;;;;;;5020199;28;20193;-66
2022/04/23 01:04:13;;;;;;;;;;;9.40;99.90;;;;;;5020740;28;19925;-66
2022/04/23 01:06:38;;;;;;;;;;;9.40;99.90;;;;;;5019873;28;19913;-66
2022/04/23 01:09:05;;;;;;;;;;;9.30;99.90;;;;;;5019837;28;20289;-66
2022/04/23 01:11:30;;;;;;;;;;;9.20;99.90;;;;;;5021319;28;19923;-66
2022/04/23 01:13:56;;;;;;;;;;;9.20;99.90;;;;;;5020149;28;19917;-66
2022/04/23 01:16:21;;;;;;;;;;;9.10;99.90;;;;;;5019875;28;19922;-66
2022/04/23 01:18:47;;;;;;;;;;;9.10;99.90;;;;;;5021019;28;19924;-66
2022/04/23 01:21:13;;;;;;;;;;;9.00;99.90;;;;;;5020652;28;20377;-66
2022/04/23 01:23:40;;;;;;;;;;;9.00;99.90;;;;;;5019023;28;19925;-66
2022/04/23 01:26:08;;;;;;;;;;;9.00;99.90;;;;;;5019656;28;19925;-66
2022/04/23 01:28:34;;;;;;;;;;;8.90;99.90;;;;;;5020726;28;19913;-66
2022/04/23 01:30:59;;;;;;;;;;;8.90;99.90;;;;;;5019006;28;20137;-66
2022/04/23 01:33:25;;;;;;;;;;;8.90;99.90;;;;;;5020763;28;19963;-66
2022/04/23 01:35:50;;;;;;;;;;;8.80;99.90;;;;;;5020029;28;20324;-66
2022/04/23 01:38:16;;;;;;;;;;;8.80;99.90;;;;;;5017503;28;20398;-66
2022/04/23 01:40:42;;;;;;;;;;;8.70;99.90;;;;;;5019254;28;19932;-66
2022/04/23 01:43:10;;;;;;;;;;;8.70;99.90;;;;;;5020162;28;19960;-66
2022/04/23 01:45:36;;;;;;;;;;;8.60;99.90;;;;;;5019847;28;19917;-66
2022/04/23 01:48:02;;;;;;;;;;;8.60;99.90;;;;;;5020329;28;19924;-66
2022/04/23 01:50:27;;;;;;;;;;;8.60;99.90;;;;;;5018964;28;20381;-66
2022/04/23 01:52:53;;;;;;;;;;;8.60;99.90;;;;;;5020474;28;20460;-66
2022/04/23 01:55:18;;;;;;;;;;;8.50;99.90;;;;;;5017581;28;19914;-66
2022/04/23 01:57:43;;;;;;;;;;;8.60;99.90;;;;;;5019519;28;19916;-66
2022/04/23 02:00:10;;;;;;;;;;;8.50;99.90;;;;;;5020242;28;19909;-66
2022/04/23 02:02:37;;;;;;;;;;;8.50;99.90;;;;;;5019869;28;19913;-66
2022/04/23 02:05:03;;;;;;;;;;;8.50;99.90;;;;;;5020037;28;20283;-66
2022/04/23 02:07:28;;;;;;;;;;;8.40;99.90;;;;;;5019484;28;20282;-66
2022/04/23 02:09:54;;;;;;;;;;;8.40;99.90;;;;;;5018180;28;19917;-66
2022/04/23 02:12:19;;;;;;;;;;;8.40;99.90;;;;;;5018382;28;19920;-66
2022/04/23 02:14:44;;;;;;;;;;;8.40;99.90;;;;;;5019907;28;19909;-66
2022/04/23 02:17:10;;;;;;;;;;;8.30;99.90;;;;;;5019742;28;20345;-66
2022/04/23 02:19:35;;;;;;;;;;;8.30;99.90;;;;;;5020000;28;19917;-66
2022/04/23 02:22:01;;;;;;;;;;;8.20;99.90;;;;;;5019426;28;19960;-66
2022/04/23 02:24:26;;;;;;;;;;;8.20;99.90;;;;;;5020324;28;19914;-66
2022/04/23 02:26:52;;;;;;;;;;;8.10;99.90;;;;;;5016903;28;20270;-66
2022/04/23 02:29:18;;;;;;;;;;;8.10;99.90;;;;;;5019729;28;20279;-66
2022/04/23 02:31:43;;;;;;;;;;;8.00;99.90;;;;;;5019192;28;19920;-66
2022/04/23 02:34:08;;;;;;;;;;;8.00;99.90;;;;;;5019814;28;19936;-66
2022/04/23 02:36:35;;;;;;;;;;;8.00;99.90;;;;;;5018862;28;20283;-66
2022/04/23 02:39:01;;;;;;;;;;;8.00;99.90;;;;;;5019809;28;19924;-66
2022/04/23 02:41:27;;;;;;;;;;;8.10;99.90;;;;;;5016370;28;19917;-66
2022/04/23 02:43:53;;;;;;;;;;;8.00;99.90;;;;;;5018552;28;19921;-66
2022/04/23 02:46:18;;;;;;;;;;;8.00;99.90;;;;;;5019533;28;19925;-66
2022/04/23 02:48:44;;;;;;;;;;;8.00;99.90;;;;;;5019292;28;20350;-66
2022/04/23 02:51:12;;;;;;;;;;;7.90;99.90;;;;;;5019273;28;19913;-66
2022/04/23 02:53:38;;;;;;;;;;;8.00;99.90;;;;;;5019255;28;19913;-66
2022/04/23 02:56:05;;;;;;;;;;;7.80;99.90;;;;;;5018757;28;20283;-66
2022/04/23 02:58:31;;;;;;;;;;;7.80;99.90;;;;;;5017398;28;19917;-66
2022/04/23 03:00:56;;;;;;;;;;;7.80;99.90;;;;;;5018238;28;20036;-66
2022/04/23 03:03:22;;;;;;;;;;;7.70;99.90;;;;;;5019116;28;20495;-66
2022/04/23 03:05:47;;;;;;;;;;;7.60;99.90;;;;;;5019375;28;20266;-66
2022/04/23 03:08:13;;;;;;;;;;;7.60;99.90;;;;;;5018450;28;20267;-66
2022/04/23 03:10:39;;;;;;;;;;;7.60;99.90;;;;;;5018501;28;19922;-66
2022/04/23 03:13:06;;;;;;;;;;;7.50;99.90;;;;;;5018844;28;20422;-66
2022/04/23 03:15:31;;;;;;;;;;;7.50;99.90;;;;;;5017346;28;19913;-66
2022/04/23 03:18:07;;;;;;;;;;;7.40;99.90;;;;;;5018265;28;19924;-66
2022/04/23 03:20:33;;;;;;;;;;;7.40;99.90;;;;;;5018869;28;19991;-66
2022/04/23 03:22:58;;;;;;;;;;;7.30;99.90;;;;;;5018992;28;20366;-66
2022/04/23 03:25:24;;;;;;;;;;;7.30;99.90;;;;;;5018349;28;19913;-66
2022/04/23 03:27:49;;;;;;;;;;;7.30;99.90;;;;;;5019045;28;19992;-66
2022/04/23 03:30:14;;;;;;;;;;;7.20;99.90;;;;;;5018754;28;19917;-66
2022/04/23 03:32:41;;;;;;;;;;;7.20;99.90;;;;;;5017110;28;19936;-66
2022/04/23 03:35:07;;;;;;;;;;;7.20;99.90;;;;;;5018354;28;19913;-66
2022/04/23 03:37:33;;;;;;;;;;;7.20;99.90;;;;;;5018528;28;19967;-66
2022/04/23 03:39:59;;;;;;;;;;;7.10;99.90;;;;;;5017565;28;19921;-66
2022/04/23 03:42:24;;;;;;;;;;;7.10;99.90;;;;;;5018616;28;19917;-66
2022/04/23 03:44:50;;;;;;;;;;;7.10;99.90;;;;;;5018777;28;20286;-66
2022/04/23 03:47:15;;;;;;;;;;;7.10;99.90;;;;;;5018463;28;20055;-66
2022/04/23 03:49:41;;;;;;;;;;;7.00;99.90;;;;;;5016752;28;20000;-66
2022/04/23 03:52:07;;;;;;;;;;;7.00;99.90;;;;;;5018211;28;19921;-66
2022/04/23 03:54:32;;;;;;;;;;;6.90;99.90;;;;;;5018228;28;19925;-66
2022/04/23 03:56:57;;;;;;;;;;;6.90;99.90;;;;;;5017303;28;19917;-66
2022/04/23 03:59:23;;;;;;;;;;;6.80;99.90;;;;;;5018730;28;20404;-65
2022/04/23 04:01:53;;;;;;;;;;;6.70;99.90;;;;;;5018602;28;19918;-65
2022/04/23 04:04:18;;;;;;;;;;;6.70;99.90;;;;;;5018590;28;19913;-65
2022/04/23 04:06:44;;;;;;;;;;;6.70;99.90;;;;;;5016736;28;20333;-66
2022/04/23 04:09:09;;;;;;;;;;;6.60;99.90;;;;;;5018498;28;19917;-66
2022/04/23 04:14:19;;;;;;;;;;;6.60;99.90;;;;;;5022422;28;20380;-66
2022/04/23 04:16:45;;;;;;;;;;;6.60;99.90;;;;;;5022054;28;20007;-66
2022/04/23 04:19:14;;;;;;;;;;;6.70;99.90;;;;;;5022392;28;19950;-67
2022/04/23 04:21:43;;;;;;;;;;;6.80;99.90;;;;;;5021461;28;19913;-66
2022/04/23 04:24:15;;;;;;;;;;;6.90;99.90;;;;;;5021800;28;19952;-67
2022/04/23 04:26:41;;;;;;;;;;;7.10;99.90;;;;;;5019374;28;19919;-66
2022/04/23 04:29:07;;;;;;;;;;;7.30;99.90;;;;;;5022227;28;19967;-66
2022/04/23 04:31:49;;;;;;;;;;;7.50;99.90;;;;;;5021221;28;20286;-66
2022/04/23 04:34:18;;;;;;;;;;;7.70;99.90;;;;;;5022236;28;19984;-67
2022/04/23 04:36:45;;;;;;;;;;;7.90;99.90;;;;;;5020453;28;19913;-66
2022/04/23 04:39:10;;;;;;;;;;;8.10;99.90;;;;;;5021897;28;19928;-66
2022/04/23 04:41:35;;;;;;;;;;;8.30;99.90;;;;;;5021262;28;20003;-67
2022/04/23 04:44:02;;;;;;;;;;;8.50;99.90;;;;;;5019709;28;19944;-67
2022/04/23 04:46:27;;;;;;;;;;;8.70;99.90;;;;;;5020496;28;19925;-66
2022/04/23 04:48:52;;;;;;;;;;;8.80;99.90;;;;;;5021613;28;19918;-66
2022/04/23 04:51:18;;;;;;;;;;;8.90;99.90;;;;;;5020974;28;19963;-66
2022/04/23 04:53:44;;;;;;;;;;;9.00;99.90;;;;;;5021574;28;19916;-66
2022/04/23 04:56:09;;;;;;;;;;;9.10;99.90;;;;;;5021585;28;20247;-66
2022/04/23 04:58:35;;;;;;;;;;;9.10;99.90;;;;;;5021625;28;20013;-67
2022/04/23 05:01:01;;;;;;;;;;;9.30;99.90;;;;;;5019777;28;19924;-66
2022/04/23 05:03:26;;;;;;;;;;;9.30;99.90;;;;;;5020855;28;20269;-66
2022/04/23 05:05:51;;;;;;;;;;;9.30;99.90;;;;;;5021178;28;19924;-66
2022/04/23 05:08:17;;;;;;;;;;;9.30;99.90;;;;;;5021442;28;20313;-66
2022/04/23 05:10:43;;;;;;;;;;;9.40;99.90;;;;;;5020374;28;20305;-66
2022/04/23 05:13:08;;;;;;;;;;;9.40;99.80;;;;;;5021113;28;20225;-66
2022/04/23 05:15:34;;;;;;;;;;;9.50;99.60;;;;;;5020969;28;19975;-66
2022/04/23 05:17:59;;;;;;;;;;;9.50;99.60;;;;;;5017985;28;20053;-66
2022/04/23 05:20:24;;;;;;;;;;;9.50;99.50;;;;;;5016796;28;20283;-66
2022/04/23 05:22:50;;;;;;;;;;;9.60;99.40;;;;;;5020490;28;20023;-66
2022/04/23 05:25:15;;;;;;;;;;;9.80;99.10;;;;;;5020197;28;19916;-66
2022/04/23 05:27:41;;;;;;;;;;;9.70;99.20;;;;;;5020822;28;19913;-66
2022/04/23 05:30:06;;;;;;;;;;;9.70;99.40;;;;;;5019883;28;19920;-66
2022/04/23 05:32:32;;;;;;;;;;;9.30;99.90;;;;;;5020396;28;19918;-66
2022/04/23 05:34:57;;;;;;;;;;;8.70;99.90;;;;;;5018921;28;20226;-66
2022/04/23 05:37:23;;;;;;;;;;;8.40;99.90;;;;;;5019875;28;19921;-66
2022/04/23 05:39:48;;;;;;;;;;;8.20;99.90;;;;;;5020414;28;19913;-66
2022/04/23 05:42:14;;;;;;;;;;;8.10;99.90;;;;;;5019747;28;20302;-66
2022/04/23 05:44:39;;;;;;;;;;;8.10;99.90;;;;;;5020597;28;20170;-66
2022/04/23 05:47:05;;;;;;;;;;;8.10;99.90;;;;;;5018334;28;19920;-66
2022/04/23 05:49:30;;;;;;;;;;;8.00;99.90;;;;;;5018860;28;19913;-66
2022/04/23 05:51:56;;;;;;;;;;;8.00;99.90;;;;;;5019001;28;20405;-66
2022/04/23 05:54:21;;;;;;;;;;;8.00;99.90;;;;;;5020407;28;20071;-66
2022/04/23 05:56:47;;;;;;;;;;;8.10;99.90;;;;;;5019571;28;19913;-66
2022/04/23 05:59:12;;;;;;;;;;;8.20;99.90;;;;;;5020919;28;19979;-66
2022/04/23 06:01:38;;;;;;;;;;;8.30;99.90;;;;;;5019783;28;19913;-66
2022/04/23 06:04:03;;;;;;;;;;;8.40;99.90;;;;;;5019766;28;19921;-66
2022/04/23 06:06:29;;;;;;;;;;;8.50;99.90;;;;;;5018958;28;19917;-66
2022/04/23 06:08:54;;;;;;;;;;;8.50;99.90;;;;;;5019152;28;20278;-66
2022/04/23 06:11:19;;;;;;;;;;;8.60;99.90;;;;;;5020109;28;20034;-66
2022/04/23 06:13:45;;;;;;;;;;;8.70;99.90;;;;;;5019726;28;19918;-66
2022/04/23 06:16:10;;;;;;;;;;;8.70;99.90;;;;;;5019830;28;19917;-66
2022/04/23 06:18:36;;;;;;;;;;;8.80;99.90;;;;;;5019101;28;19921;-66
2022/04/23 06:21:01;;;;;;;;;;;8.80;99.90;;;;;;5018331;28;19917;-66
2022/04/23 06:23:27;;;;;;;;;;;9.00;99.90;;;;;;5019129;28;19975;-66
2022/04/23 06:25:52;;;;;;;;;;;9.10;99.90;;;;;;5019345;28;19917;-66
2022/04/23 06:28:18;;;;;;;;;;;9.20;99.90;;;;;;5018995;28;19963;-66
2022/04/23 06:30:43;;;;;;;;;;;9.30;99.90;;;;;;5019011;28;19914;-66
2022/04/23 06:33:09;;;;;;;;;;;9.30;99.90;;;;;;5018917;28;19926;-66
2022/04/23 06:35:34;;;;;;;;;;;9.40;99.90;;;;;;5019292;28;19921;-66
2022/04/23 06:38:01;;;;;;;;;;;9.50;99.90;;;;;;5017645;28;20341;-66
2022/04/23 06:40:26;;;;;;;;;;;9.60;99.90;;;;;;5019129;28;19909;-66
2022/04/23 06:42:52;;;;;;;;;;;9.60;99.60;;;;;;5019118;28;20405;-66
2022/04/23 06:45:17;;;;;;;;;;;9.70;99.30;;;;;;5018871;28;20446;-66
2022/04/23 06:47:42;;;;;;;;;;;9.80;99.30;;;;;;5019590;28;19924;-66
2022/04/23 06:50:08;;;;;;;;;;;9.90;99.30;;;;;;5018494;28;19921;-66
2022/04/23 06:52:34;;;;;;;;;;;10.10;99.20;;;;;;5019048;28;20355;-66
2022/04/23 06:55:00;;;;;;;;;;;10.20;99.00;;;;;;5016756;28;20408;-66
2022/04/23 06:57:25;;;;;;;;;;;10.20;99.00;;;;;;5013574;28;19945;-67
2022/04/23 06:59:51;;;;;;;;;;;10.30;98.70;;;;;;5014999;28;20402;-66
2022/04/23 07:02:17;;;;;;;;;;;10.40;98.60;;;;;;5018735;28;20325;-66
2022/04/23 07:04:43;;;;;;;;;;;10.40;98.60;;;;;;5018508;28;19922;-66
2022/04/23 07:07:10;;;;;;;;;;;10.40;98.40;;;;;;5017249;28;19920;-66
2022/04/23 07:09:35;;;;;;;;;;;10.40;98.30;;;;;;5018641;28;19909;-66
2022/04/23 07:12:01;;;;;;;;;;;10.50;98.10;;;;;;5016495;28;19974;-66
2022/04/23 07:14:27;;;;;;;;;;;10.60;98.10;;;;;;5016675;28;19913;-66
2022/04/23 07:16:52;;;;;;;;;;;10.70;98.00;;;;;;5016379;28;19917;-67
2022/04/23 07:19:17;;;;;;;;;;;10.90;97.20;;;;;;5013892;28;19921;-72
2022/04/23 07:21:43;;;;;;;;;;;11.00;96.60;;;;;;5014719;28;19921;-68
2022/04/23 07:24:10;;;;;;;;;;;11.10;96.80;;;;;;5018318;28;20146;-67
2022/04/23 07:26:36;;;;;;;;;;;11.30;95.40;;;;;;5017348;28;19924;-68
2022/04/23 07:29:06;;;;;;;;;;;11.40;95.50;;;;;;5012265;28;20374;-67
2022/04/23 07:31:32;;;;;;;;;;;11.50;94.40;;;;;;5014467;28;19920;-68
2022/04/23 07:39:26;;;;;;;;;;;11.60;94.50;;;;;;5017263;28;19925;-67
2022/04/23 07:41:54;;;;;;;;;;;11.80;94.40;;;;;;5014383;28;19913;-67
2022/04/23 07:44:20;;;;;;;;;;;12.00;93.60;;;;;;5015350;28;19974;-67
2022/04/23 07:46:45;;;;;;;;;;;12.20;91.30;;;;;;5016232;28;20352;-66
2022/04/23 07:49:11;;;;;;;;;;;12.30;88.00;;;;;;5019282;28;19948;-66
2022/04/23 07:51:36;;;;;;;;;;;12.40;85.80;;;;;;5020830;28;19988;-66
2022/04/23 07:54:01;;;;;;;;;;;12.40;86.00;;;;;;5019480;28;19960;-66
2022/04/23 07:56:27;;;;;;;;;;;12.40;83.90;;;;;;5021032;28;20295;-67
2022/04/23 07:58:52;;;;;;;;;;;12.50;82.80;;;;;;5020882;28;19948;-66
2022/04/23 08:01:18;;;;;;;;;;;12.50;83.20;;;;;;5020460;28;20001;-67
2022/04/23 08:03:43;;;;;;;;;;;12.60;82.00;;;;;;5019865;28;19920;-66
2022/04/23 08:06:10;;;;;;;;;;;12.70;82.10;;;;;;5020119;28;19924;-66
2022/04/23 08:08:38;;;;;;;;;;;12.80;80.70;;;;;;5020410;28;20520;-67
2022/04/23 08:11:04;;;;;;;;;;;12.80;80.60;;;;;;5021573;28;20333;-66
2022/04/23 08:13:29;;;;;;;;;;;12.90;78.70;;;;;;5021479;28;19923;-66
2022/04/23 08:15:54;;;;;;;;;;;12.90;77.20;;;;;;5018836;28;19913;-65
2022/04/23 08:18:20;;;;;;;;;;;12.80;75.50;;;;;;5021122;28;19917;-67
2022/04/23 08:20:46;;;;;;;;;;;12.80;74.90;;;;;;5022447;28;19917;-66
2022/04/23 08:23:11;;;;;;;;;;;12.80;75.70;;;;;;5018028;28;20000;-66
2022/04/23 08:25:36;;;;;;;;;;;12.80;75.70;;;;;;5020624;28;20004;-66
2022/04/23 08:30:46;;;;;;;;;;;13.00;73.00;;;;;;5020389;28;20011;-65
2022/04/23 08:33:12;;;;;;;;;;;12.90;75.20;;;;;;5018752;28;20365;-66
2022/04/23 08:35:38;;;;;;;;;;;13.10;79.20;;;;;;5018930;28;20436;-67
2022/04/23 08:38:04;;;;;;;;;;;13.40;73.20;;;;;;5019372;28;19932;-67
2022/04/23 08:40:38;;;;;;;;;;;13.30;68.60;;;;;;5020165;28;19917;-66
2022/04/23 08:43:04;;;;;;;;;;;13.10;68.60;;;;;;5019973;28;19917;-70
2022/04/23 08:45:32;;;;;;;;;;;13.10;68.50;;;;;;5019060;28;20401;-66
2022/04/23 08:47:59;;;;;;;;;;;13.20;69.00;;;;;;5019774;28;19917;-65
2022/04/23 08:50:26;;;;;;;;;;;13.30;70.80;;;;;;5019839;28;19989;-66
2022/04/23 08:52:52;;;;;;;;;;;13.40;70.40;;;;;;5015288;28;20375;-65
2022/04/23 08:55:18;;;;;;;;;;;13.50;69.90;;;;;;5017048;28;20392;-66
2022/04/23 08:57:44;;;;;;;;;;;13.60;69.30;;;;;;5018712;28;19913;-66
2022/04/23 09:00:11;;;;;;;;;;;13.60;69.00;;;;;;5019731;28;19921;-65
2022/04/23 09:02:37;;;;;;;;;;;13.70;69.50;;;;;;5021012;28;19917;-65
2022/04/23 09:05:02;;;;;;;;;;;13.80;69.20;;;;;;5020275;28;20158;-66
2022/04/23 09:07:29;;;;;;;;;;;13.90;66.20;;;;;;5001606;28;19913;-66
2022/04/23 09:09:55;;;;;;;;;;;13.80;64.00;;;;;;5019670;28;19917;-66
2022/04/23 09:12:24;;;;;;;;;;;13.80;64.80;;;;;;5018699;28;19971;-66
2022/04/23 09:14:50;;;;;;;;;;;13.90;61.90;;;;;;5017115;28;19917;-68
2022/04/23 09:25:44;;;;;;;;;;;14.20;63.00;;;;;;5021120;28;19925;-66
2022/04/23 09:28:16;;;;;;;;;;;14.40;62.60;;;;;;5016821;28;20004;-70
2022/04/23 09:30:42;;;;;;;;;;;14.40;62.80;;;;;;5017586;28;19921;-71
2022/04/23 09:33:07;;;;;;;;;;;14.50;60.70;;;;;;5019504;28;19927;-71
2022/04/23 09:35:33;;;;;;;;;;;14.50;60.10;;;;;;5016899;28;19917;-70
2022/04/23 09:38:15;;;;;;;;;;;14.40;58.90;;;;;;5017068;28;19924;-69
2022/04/23 09:40:40;;;;;;;;;;;14.30;59.60;;;;;;5018902;28;19918;-73
2022/04/23 09:43:07;;;;;;;;;;;14.40;60.60;;;;;;5016003;28;19913;-73
2022/04/23 09:45:34;;;;;;;;;;;14.50;60.40;;;;;;5017115;28;20016;-69
2022/04/23 09:48:05;;;;;;;;;;;14.50;60.50;;;;;;5018452;28;19917;-72
2022/04/23 09:50:37;;;;;;;;;;;14.50;60.20;;;;;;5018651;28;19913;-71
2022/04/23 09:53:12;;;;;;;;;;;14.60;59.60;;;;;;5016259;28;19917;-69
2022/04/23 09:55:38;;;;;;;;;;;14.70;60.70;;;;;;5016603;28;19924;-71
2022/04/23 09:58:04;;;;;;;;;;;14.90;63.00;;;;;;5017358;28;19917;-68
2022/04/23 10:00:30;;;;;;;;;;;15.00;61.10;;;;;;5018254;28;20356;-69
2022/04/23 10:02:58;;;;;;;;;;;15.20;60.00;;;;;;5014093;28;20631;-68
2022/04/23 10:05:24;;;;;;;;;;;15.20;59.40;;;;;;5017139;28;20498;-66
2022/04/23 10:07:51;;;;;;;;;;;15.30;60.50;;;;;;5015689;28;19914;-64
2022/04/23 10:10:17;;;;;;;;;;;15.30;58.40;;;;;;5018567;28;20297;-66
2022/04/23 10:12:43;;;;;;;;;;;15.20;57.50;;;;;;5016627;28;19917;-68
2022/04/23 10:15:09;;;;;;;;;;;15.20;56.40;;;;;;5014039;28;19936;-62
2022/04/23 10:17:34;;;;;;;;;;;15.20;56.90;;;;;;5018021;28;20410;-66
2022/04/23 10:20:02;;;;;;;;;;;15.30;60.00;;;;;;5019248;28;19964;-63
2022/04/23 10:22:53;;;;;;;;;;;15.60;57.90;;;;;;5018022;28;19913;-64
2022/04/23 10:25:27;;;;;;;;;;;15.80;58.00;;;;;;5017740;28;19913;-64
2022/04/23 10:27:55;;;;;;;;;;;15.90;58.50;;;;;;5017770;28;19924;-63
2022/04/23 10:30:21;;;;;;;;;;;16.00;55.80;;;;;;5017843;28;19913;-64
2022/04/23 10:32:46;;;;;;;;;;;16.00;57.40;;;;;;5018693;28;19917;-63
2022/04/23 10:35:17;;;;;;;;;;;16.10;56.30;;;;;;5016317;28;19956;-61
2022/04/23 10:37:44;;;;;;;;;;;15.90;55.30;;;;;;5018076;28;20286;-63
2022/04/23 10:40:13;;;;;;;;;;;15.40;56.10;;;;;;5018719;28;19917;-61
2022/04/23 10:42:39;;;;;;;;;;;15.30;57.00;;;;;;5015584;28;19999;-62
2022/04/23 10:45:06;;;;;;;;;;;15.30;57.30;;;;;;5016188;28;20491;-61
2022/04/23 10:47:39;;;;;;;;;;;15.50;56.50;;;;;;5018310;28;19913;-62
2022/04/23 10:50:18;;;;;;;;;;;15.70;55.30;;;;;;5017328;28;19913;-71
2022/04/23 10:52:44;;;;;;;;;;;15.80;54.00;;;;;;5015185;28;19994;-68
2022/04/23 10:55:11;;;;;;;;;;;15.60;53.80;;;;;;5014449;28;19957;-67
2022/04/23 10:57:38;;;;;;;;;;;15.40;54.80;;;;;;5012790;28;19957;-67
2022/04/23 11:00:11;;;;;;;;;;;15.40;54.90;;;;;;5013608;28;19928;-67
2022/04/23 11:02:39;;;;;;;;;;;15.50;54.40;;;;;;5017726;28;19936;-64
2022/04/23 11:13:46;;;;;;;;;;;15.70;55.10;;;;;;5018154;28;19943;-66
2022/04/23 11:16:16;;;;;;;;;;;15.70;55.90;;;;;;5017499;28;19921;-67
2022/04/23 11:18:46;;;;;;;;;;;15.70;53.60;;;;;;5015547;28;19976;-66
2022/04/23 11:21:14;;;;;;;;;;;15.70;53.70;;;;;;5014336;28;19913;-66
2022/04/23 11:23:42;;;;;;;;;;;15.70;54.30;;;;;;5018143;28;20012;-66
2022/04/23 11:26:11;;;;;;;;;;;15.80;54.50;;;;;;5018423;28;19941;-66
2022/04/23 11:28:37;;;;;;;;;;;15.70;55.00;;;;;;5020206;28;19997;-66
2022/04/23 11:31:13;;;;;;;;;;;15.80;57.00;;;;;;5019424;28;19948;-67
2022/04/23 11:33:49;;;;;;;;;;;16.10;55.80;;;;;;5021150;28;19920;-66
2022/04/23 11:36:15;;;;;;;;;;;16.40;54.30;;;;;;5022241;28;19952;-67
2022/04/23 11:38:43;;;;;;;;;;;16.50;52.80;;;;;;5020588;28;19957;-66
2022/04/23 11:41:09;;;;;;;;;;;16.30;52.80;;;;;;5019669;28;19914;-66
2022/04/23 11:43:37;;;;;;;;;;;16.10;53.50;;;;;;5018388;28;19923;-66
2022/04/23 11:46:06;;;;;;;;;;;16.00;54.80;;;;;;5019864;28;19917;-66
2022/04/23 11:48:42;;;;;;;;;;;16.20;53.90;;;;;;5021657;28;19917;-65
2022/04/23 11:51:12;;;;;;;;;;;16.30;53.90;;;;;;5019738;28;20289;-65
2022/04/23 11:53:49;;;;;;;;;;;16.40;54.50;;;;;;5019362;28;19913;-66
2022/04/23 11:56:21;;;;;;;;;;;16.70;54.00;;;;;;5020765;28;20279;-66
2022/04/23 11:58:46;;;;;;;;;;;16.80;52.40;;;;;;5019173;28;19961;-66
2022/04/23 12:01:12;;;;;;;;;;;16.90;51.70;;;;;;5020015;28;20319;-66
2022/04/23 12:03:46;;;;;;;;;;;16.90;49.90;;;;;;5019491;28;19925;-66
2022/04/23 12:06:12;;;;;;;;;;;16.90;50.00;;;;;;5021127;28;19928;-66
2022/04/23 12:08:37;;;;;;;;;;;16.80;49.40;;;;;;5019964;28;20302;-66
2022/04/23 12:11:03;;;;;;;;;;;16.70;49.00;;;;;;5021231;28;19944;-66
2022/04/23 12:13:28;;;;;;;;;;;16.60;49.80;;;;;;5019297;28;19922;-66
2022/04/23 12:15:53;;;;;;;;;;;16.60;50.60;;;;;;5019863;28;20048;-66
2022/04/23 12:18:19;;;;;;;;;;;16.90;50.40;;;;;;5017671;28;19967;-66
2022/04/23 12:20:44;;;;;;;;;;;17.00;49.40;;;;;;5021172;28;20346;-66
2022/04/23 12:23:10;;;;;;;;;;;17.00;51.10;;;;;;5018273;28;20289;-66
2022/04/23 12:25:36;;;;;;;;;;;17.20;50.40;;;;;;5020395;28;20328;-66
2022/04/23 12:42:23;;;;;;;;;;;17.50;51.20;;;;;;5021053;28;20341;-66
2022/04/23 12:44:49;;;;;;;;;;;17.70;48.70;;;;;;5019175;28;19913;-66
2022/04/23 12:47:18;;;;;;;;;;;17.50;49.20;;;;;;5019787;28;19914;-66
2022/04/23 12:49:47;;;;;;;;;;;17.50;49.50;;;;;;5019379;28;19918;-67
2022/04/23 12:52:16;;;;;;;;;;;17.60;48.20;;;;;;5018470;28;20436;-67
2022/04/23 12:55:01;;;;;;;;;;;17.70;48.50;;;;;;5018589;28;19913;-66
2022/04/23 12:57:27;;;;;;;;;;;17.80;48.90;;;;;;5017036;28;19917;-66
2022/04/23 12:59:52;;;;;;;;;;;17.80;47.10;;;;;;5019136;28;19986;-66
2022/04/23 13:02:18;;;;;;;;;;;17.60;47.90;;;;;;5015966;28;20052;-66
2022/04/23 13:04:43;;;;;;;;;;;17.50;48.50;;;;;;5019805;28;20074;-66
2022/04/23 13:09:52;;;;;;;;;;;17.40;47.30;;;;;;5016965;28;19944;-66
2022/04/23 13:12:18;;;;;;;;;;;17.30;47.20;;;;;;5019412;28;19925;-67
2022/04/23 13:14:44;;;;;;;;;;;17.10;47.90;;;;;;5018050;28;19966;-66
2022/04/23 13:17:09;;;;;;;;;;;17.00;48.30;;;;;;5018283;28;20012;-66
2022/04/23 13:19:35;;;;;;;;;;;17.10;48.30;;;;;;5019847;28;19932;-66
2022/04/23 13:22:00;;;;;;;;;;;17.10;48.60;;;;;;5017982;28;19917;-65
2022/04/23 13:24:27;;;;;;;;;;;17.30;48.10;;;;;;5017136;28;19920;-66
2022/04/23 13:26:52;;;;;;;;;;;17.40;47.70;;;;;;5019970;28;19935;-65
2022/04/23 13:29:17;;;;;;;;;;;17.60;47.70;;;;;;5017592;28;19909;-66
2022/04/23 13:31:43;;;;;;;;;;;17.70;46.30;;;;;;5017016;28;19917;-66
2022/04/23 13:34:08;;;;;;;;;;;17.60;47.00;;;;;;5016523;28;20008;-66
2022/04/23 13:36:34;;;;;;;;;;;17.50;47.40;;;;;;5018896;28;19917;-66
2022/04/23 13:38:59;;;;;;;;;;;17.50;48.80;;;;;;5019222;28;19913;-66
2022/04/23 13:41:25;;;;;;;;;;;17.80;48.30;;;;;;5017277;28;19952;-66
2022/04/23 13:43:50;;;;;;;;;;;17.90;48.20;;;;;;5018364;28;20010;-66
2022/04/23 13:46:16;;;;;;;;;;;18.00;47.20;;;;;;5018136;28;19971;-65
2022/04/23 13:48:42;;;;;;;;;;;17.90;46.40;;;;;;5020249;28;19913;-66
2022/04/23 13:51:07;;;;;;;;;;;17.90;47.90;;;;;;5017986;28;19948;-65
2022/04/23 13:53:33;;;;;;;;;;;18.00;48.00;;;;;;5019672;28;20366;-66
2022/04/23 13:55:58;;;;;;;;;;;18.10;46.90;;;;;;5018555;28;19913;-66
2022/04/23 13:58:24;;;;;;;;;;;18.00;47.70;;;;;;5016713;28;20262;-66
2022/04/23 14:00:49;;;;;;;;;;;18.00;47.40;;;;;;5015409;28;19917;-65
2022/04/23 14:11:28;;;;;;;;;;;17.80;46.20;;;;;;5016613;28;19924;-65
2022/04/23 14:13:53;;;;;;;;;;;17.70;46.40;;;;;;5015881;28;19921;-67
2022/04/23 14:16:19;;;;;;;;;;;17.50;46.70;;;;;;5015977;28;19952;-65
2022/04/23 14:18:44;;;;;;;;;;;17.30;47.40;;;;;;5018297;28;19925;-66
2022/04/23 14:21:10;;;;;;;;;;;17.20;47.70;;;;;;5015723;28;19913;-66
2022/04/23 14:23:35;;;;;;;;;;;17.30;48.00;;;;;;5015048;28;19959;-67
2022/04/23 14:26:01;;;;;;;;;;;17.40;47.20;;;;;;5016969;28;20381;-67
2022/04/23 14:28:26;;;;;;;;;;;17.30;46.80;;;;;;5017506;28;19927;-67
2022/04/23 14:30:52;;;;;;;;;;;17.30;47.50;;;;;;5015750;28;20158;-67
2022/04/23 14:33:18;;;;;;;;;;;17.40;46.60;;;;;;5014830;28;19913;-67
2022/04/23 14:35:43;;;;;;;;;;;17.40;46.60;;;;;;5017375;28;19996;-67
2022/04/23 14:38:09;;;;;;;;;;;17.40;47.10;;;;;;5015907;28;19914;-66
2022/04/23 14:40:34;;;;;;;;;;;17.50;46.70;;;;;;5015864;28;19917;-66
2022/04/23 14:43:00;;;;;;;;;;;17.50;45.80;;;;;;5007304;28;20059;-71
2022/04/23 14:45:28;;;;;;;;;;;17.60;45.50;;;;;;5011744;28;19921;-73
2022/04/23 14:47:54;;;;;;;;;;;17.50;45.60;;;;;;5013178;28;19988;-72
2022/04/23 14:50:20;;;;;;;;;;;17.50;45.60;;;;;;5016662;28;19917;-74
2022/04/23 15:02:00;;;;;;;;;;;17.40;47.20;;;;;;5013251;28;20179;-72
2022/04/23 15:04:25;;;;;;;;;;;17.60;46.80;;;;;;4990578;28;20303;-72
2022/04/23 15:06:53;;;;;;;;;;;17.80;46.90;;;;;;5018474;28;19920;-73
2022/04/23 15:15:25;;;;;;;;;;;17.90;45.50;;;;;;5019220;28;19916;-74
2022/04/23 15:18:02;;;;;;;;;;;17.80;46.30;;;;;;5018238;28;19918;-73
2022/04/23 15:20:27;;;;;;;;;;;17.90;45.00;;;;;;5014277;28;19918;-73
2022/04/23 15:25:56;;;;;;;;;;;17.70;46.10;;;;;;5012981;28;19956;-73
2022/04/23 15:28:22;;;;;;;;;;;17.70;45.60;;;;;;5014366;28;19957;-74
2022/04/23 15:30:47;;;;;;;;;;;17.60;45.70;;;;;;5013721;28;19993;-74